Box Hill, New York
Current Conditions -  °F | °C
As of 3:56 PM on Friday 28 Nov 2014 (Local Time) from KISP Reporting Station
Scattered Clouds Scattered Clouds  
Wind Chill: 26°   Ceiling: Unl
Heat Index: 36°   Visibility: 10mi
Dew Point: 18°   Wind: 17mph
Humidity: 48%   Direction: 290°WNW
Pressure: 30.15"   Gusts: 23mph
Location:  40.8903°N, 73.169°W
Report Text: KISP 282056Z 29015G20KT 10SM SCT046 02/M08 A3015 RMK AO2 SLP209 T00221078 53016
Loading
Personal Weather Stations






























Interactive Weather Map New forecast layout! Learn more

10-Day Weather Forecast

Advertisements
Track Severe Weather on mobile